EPLS weather

Leszno Strzyzewi Airport
Leszno, Greater Poland, Poland

Public forecast

Using degrees Celsius for public forecast. Weather courtesy of forecast.io.

METAR (pilot weather report)

Closest report is Zielona Góra-Babimost Airport, 32.4 nm (59.9 km) NW. Retrieved 2019/09/17 03:30 UTC (0 seconds ago):

EPZG 170330Z 24009KT CAVOK 11/09 Q1015

TAF (pilot weather forecast)

Forecast is more than 12 hours old.

Closest forecast is Zielona Góra-Babimost Airport, 32.4 nm (59.9 km) NW. Retrieved 2012/06/28 21:49 UTC (7 years ago):

TAF EPZG 282000Z 2821/2906 VRB02KT CAVOK TEMPO 2823/2904 5000 BR PROB30 2900/2904 1500 BR BKN005